sensor_id;sensor_type;location;lat;lon;timestamp;temperature;humidity
22114;DHT22;11223;49.968;9.062;2023-03-14T00:01:15;8.90;99.90
22114;DHT22;11223;49.968;9.062;2023-03-14T00:03:41;8.90;99.90
22114;DHT22;11223;49.968;9.062;2023-03-14T00:06:08;9.00;99.90
22114;DHT22;11223;49.968;9.062;2023-03-14T00:08:34;9.00;99.90
22114;DHT22;11223;49.968;9.062;2023-03-14T00:11:29;9.00;99.90
22114;DHT22;11223;49.968;9.062;2023-03-14T00:13:55;9.00;99.90
22114;DHT22;11223;49.968;9.062;2023-03-14T00:16:21;9.10;99.90
22114;DHT22;11223;49.968;9.062;2023-03-14T00:18:47;9.10;99.90
22114;DHT22;11223;49.968;9.062;2023-03-14T00:21:12;9.10;99.90
22114;DHT22;11223;49.968;9.062;2023-03-14T00:23:39;9.20;99.90
22114;DHT22;11223;49.968;9.062;2023-03-14T00:26:08;9.20;99.90
22114;DHT22;11223;49.968;9.062;2023-03-14T00:28:34;9.20;99.90
22114;DHT22;11223;49.968;9.062;2023-03-14T00:31:03;9.30;99.90
22114;DHT22;11223;49.968;9.062;2023-03-14T00:33:29;9.20;99.90
22114;DHT22;11223;49.968;9.062;2023-03-14T00:35:59;9.30;99.90
22114;DHT22;11223;49.968;9.062;2023-03-14T00:38:26;9.20;99.90
22114;DHT22;11223;49.968;9.062;2023-03-14T00:40:52;9.30;99.90
22114;DHT22;11223;49.968;9.062;2023-03-14T00:43:18;9.30;99.90
22114;DHT22;11223;49.968;9.062;2023-03-14T00:45:44;9.30;99.90
22114;DHT22;11223;49.968;9.062;2023-03-14T00:48:10;9.30;99.90
22114;DHT22;11223;49.968;9.062;2023-03-14T00:50:35;9.40;99.90
22114;DHT22;11223;49.968;9.062;2023-03-14T00:53:01;9.40;99.90
22114;DHT22;11223;49.968;9.062;2023-03-14T00:55:26;9.40;99.90
22114;DHT22;11223;49.968;9.062;2023-03-14T00:57:52;9.30;99.90
22114;DHT22;11223;49.968;9.062;2023-03-14T01:00:18;9.30;99.90
22114;DHT22;11223;49.968;9.062;2023-03-14T01:02:43;9.40;99.90
22114;DHT22;11223;49.968;9.062;2023-03-14T01:05:09;9.40;99.90
22114;DHT22;11223;49.968;9.062;2023-03-14T01:07:38;9.40;99.90
22114;DHT22;11223;49.968;9.062;2023-03-14T01:10:05;9.30;99.90
22114;DHT22;11223;49.968;9.062;2023-03-14T01:12:31;9.30;99.90
22114;DHT22;11223;49.968;9.062;2023-03-14T01:14:57;9.30;99.90
22114;DHT22;11223;49.968;9.062;2023-03-14T01:17:22;9.30;99.90
22114;DHT22;11223;49.968;9.062;2023-03-14T01:19:48;9.40;99.90
22114;DHT22;11223;49.968;9.062;2023-03-14T01:22:14;9.40;99.90
22114;DHT22;11223;49.968;9.062;2023-03-14T01:24:39;9.40;99.90
22114;DHT22;11223;49.968;9.062;2023-03-14T01:27:05;9.30;99.90
22114;DHT22;11223;49.968;9.062;2023-03-14T01:29:31;9.30;99.90
22114;DHT22;11223;49.968;9.062;2023-03-14T01:31:56;9.30;99.90
22114;DHT22;11223;49.968;9.062;2023-03-14T01:34:22;9.30;99.90
22114;DHT22;11223;49.968;9.062;2023-03-14T01:36:47;9.30;99.90
22114;DHT22;11223;49.968;9.062;2023-03-14T01:39:13;9.30;99.90
22114;DHT22;11223;49.968;9.062;2023-03-14T01:41:39;9.20;99.90
22114;DHT22;11223;49.968;9.062;2023-03-14T01:44:05;9.10;99.90
22114;DHT22;11223;49.968;9.062;2023-03-14T01:46:43;9.10;99.90
22114;DHT22;11223;49.968;9.062;2023-03-14T01:49:29;9.10;99.90
22114;DHT22;11223;49.968;9.062;2023-03-14T01:51:59;9.10;99.90
22114;DHT22;11223;49.968;9.062;2023-03-14T01:57:05;9.10;99.90
22114;DHT22;11223;49.968;9.062;2023-03-14T01:59:32;9.00;99.90
22114;DHT22;11223;49.968;9.062;2023-03-14T02:01:59;9.00;99.90
22114;DHT22;11223;49.968;9.062;2023-03-14T02:04:28;8.90;99.90
22114;DHT22;11223;49.968;9.062;2023-03-14T02:07:07;8.90;99.90
22114;DHT22;11223;49.968;9.062;2023-03-14T02:09:36;9.00;99.90
22114;DHT22;11223;49.968;9.062;2023-03-14T02:12:03;9.00;99.90
22114;DHT22;11223;49.968;9.062;2023-03-14T02:14:31;9.10;99.90
22114;DHT22;11223;49.968;9.062;2023-03-14T02:16:58;9.10;99.90
22114;DHT22;11223;49.968;9.062;2023-03-14T02:20:18;9.00;99.90
22114;DHT22;11223;49.968;9.062;2023-03-14T02:22:17;9.00;99.90
22114;DHT22;11223;49.968;9.062;2023-03-14T02:25:02;9.00;99.90
22114;DHT22;11223;49.968;9.062;2023-03-14T02:27:29;9.00;99.90
22114;DHT22;11223;49.968;9.062;2023-03-14T02:29:58;9.00;99.90
22114;DHT22;11223;49.968;9.062;2023-03-14T02:32:27;9.00;99.90
22114;DHT22;11223;49.968;9.062;2023-03-14T02:34:56;9.00;99.90
22114;DHT22;11223;49.968;9.062;2023-03-14T02:37:46;9.00;99.90
22114;DHT22;11223;49.968;9.062;2023-03-14T02:40:12;9.00;99.90
22114;DHT22;11223;49.968;9.062;2023-03-14T02:42:38;9.10;99.90
22114;DHT22;11223;49.968;9.062;2023-03-14T02:47:38;9.10;99.90
22114;DHT22;11223;49.968;9.062;2023-03-14T02:50:10;9.10;99.90
22114;DHT22;11223;49.968;9.062;2023-03-14T02:52:36;9.20;99.90
22114;DHT22;11223;49.968;9.062;2023-03-14T02:55:02;9.30;99.90
22114;DHT22;11223;49.968;9.062;2023-03-14T02:57:28;9.40;99.90
22114;DHT22;11223;49.968;9.062;2023-03-14T02:59:57;9.40;99.90
22114;DHT22;11223;49.968;9.062;2023-03-14T03:02:23;9.40;99.90
22114;DHT22;11223;49.968;9.062;2023-03-14T03:04:48;9.40;99.90
22114;DHT22;11223;49.968;9.062;2023-03-14T03:07:14;9.40;99.90
22114;DHT22;11223;49.968;9.062;2023-03-14T03:09:39;9.40;99.90
22114;DHT22;11223;49.968;9.062;2023-03-14T03:12:05;9.40;99.90
22114;DHT22;11223;49.968;9.062;2023-03-14T03:14:31;9.50;99.90
22114;DHT22;11223;49.968;9.062;2023-03-14T03:16:56;9.50;99.90
22114;DHT22;11223;49.968;9.062;2023-03-14T03:19:22;9.50;99.90
22114;DHT22;11223;49.968;9.062;2023-03-14T03:21:48;9.50;99.90
22114;DHT22;11223;49.968;9.062;2023-03-14T03:24:13;9.50;99.90
22114;DHT22;11223;49.968;9.062;2023-03-14T03:26:39;9.50;99.90
22114;DHT22;11223;49.968;9.062;2023-03-14T03:29:04;9.50;99.90
22114;DHT22;11223;49.968;9.062;2023-03-14T03:31:30;9.50;99.90
22114;DHT22;11223;49.968;9.062;2023-03-14T03:33:56;9.60;99.90
22114;DHT22;11223;49.968;9.062;2023-03-14T03:36:26;9.60;99.90
22114;DHT22;11223;49.968;9.062;2023-03-14T03:38:51;9.50;99.90
22114;DHT22;11223;49.968;9.062;2023-03-14T03:41:17;9.50;99.90
22114;DHT22;11223;49.968;9.062;2023-03-14T03:43:42;9.50;99.90
22114;DHT22;11223;49.968;9.062;2023-03-14T03:46:08;9.40;99.90
22114;DHT22;11223;49.968;9.062;2023-03-14T03:48:35;9.40;99.90
22114;DHT22;11223;49.968;9.062;2023-03-14T03:51:01;9.50;99.90
22114;DHT22;11223;49.968;9.062;2023-03-14T03:53:26;9.40;99.90
22114;DHT22;11223;49.968;9.062;2023-03-14T03:55:52;9.40;99.90
22114;DHT22;11223;49.968;9.062;2023-03-14T03:58:18;9.50;99.90
22114;DHT22;11223;49.968;9.062;2023-03-14T04:00:43;9.40;99.90
22114;DHT22;11223;49.968;9.062;2023-03-14T04:03:09;9.40;99.90
22114;DHT22;11223;49.968;9.062;2023-03-14T04:05:35;9.40;99.90
22114;DHT22;11223;49.968;9.062;2023-03-14T04:08:01;9.40;99.90
22114;DHT22;11223;49.968;9.062;2023-03-14T04:10:27;9.40;99.90
22114;DHT22;11223;49.968;9.062;2023-03-14T04:12:53;9.40;99.90
22114;DHT22;11223;49.968;9.062;2023-03-14T04:15:18;9.40;99.90
22114;DHT22;11223;49.968;9.062;2023-03-14T04:17:44;9.30;99.90
22114;DHT22;11223;49.968;9.062;2023-03-14T04:20:10;9.20;99.90
22114;DHT22;11223;49.968;9.062;2023-03-14T04:22:37;9.20;99.90
22114;DHT22;11223;49.968;9.062;2023-03-14T04:25:02;9.20;99.90
22114;DHT22;11223;49.968;9.062;2023-03-14T04:27:29;9.20;99.90
22114;DHT22;11223;49.968;9.062;2023-03-14T04:29:54;9.20;99.90
22114;DHT22;11223;49.968;9.062;2023-03-14T04:32:20;9.10;99.90
22114;DHT22;11223;49.968;9.062;2023-03-14T04:34:46;9.10;99.90
22114;DHT22;11223;49.968;9.062;2023-03-14T04:37:12;9.10;99.90
22114;DHT22;11223;49.968;9.062;2023-03-14T04:39:38;9.00;99.90
22114;DHT22;11223;49.968;9.062;2023-03-14T04:42:04;9.00;99.90
22114;DHT22;11223;49.968;9.062;2023-03-14T04:44:29;9.00;99.90
22114;DHT22;11223;49.968;9.062;2023-03-14T04:46:55;9.00;99.90
22114;DHT22;11223;49.968;9.062;2023-03-14T04:49:21;9.00;99.90
22114;DHT22;11223;49.968;9.062;2023-03-14T04:51:46;9.00;99.90
22114;DHT22;11223;49.968;9.062;2023-03-14T04:54:12;9.10;99.90
22114;DHT22;11223;49.968;9.062;2023-03-14T04:56:37;9.20;99.90
22114;DHT22;11223;49.968;9.062;2023-03-14T04:59:04;9.20;99.90
22114;DHT22;11223;49.968;9.062;2023-03-14T05:01:30;9.20;99.90
22114;DHT22;11223;49.968;9.062;2023-03-14T05:03:55;9.20;99.90
22114;DHT22;11223;49.968;9.062;2023-03-14T05:06:21;9.30;99.90
22114;DHT22;11223;49.968;9.062;2023-03-14T05:08:47;9.20;99.90
22114;DHT22;11223;49.968;9.062;2023-03-14T05:11:12;9.30;99.90
22114;DHT22;11223;49.968;9.062;2023-03-14T05:13:38;9.30;99.90
22114;DHT22;11223;49.968;9.062;2023-03-14T05:16:09;9.20;99.90
22114;DHT22;11223;49.968;9.062;2023-03-14T05:18:35;9.20;99.90
22114;DHT22;11223;49.968;9.062;2023-03-14T05:21:01;9.10;99.90
22114;DHT22;11223;49.968;9.062;2023-03-14T05:23:27;9.20;99.90
22114;DHT22;11223;49.968;9.062;2023-03-14T05:25:53;9.20;99.90
22114;DHT22;11223;49.968;9.062;2023-03-14T05:28:19;9.20;99.90
22114;DHT22;11223;49.968;9.062;2023-03-14T05:30:44;9.20;99.90
22114;DHT22;11223;49.968;9.062;2023-03-14T05:33:10;9.20;99.90
22114;DHT22;11223;49.968;9.062;2023-03-14T05:35:35;9.20;99.90
22114;DHT22;11223;49.968;9.062;2023-03-14T05:38:01;9.20;99.90
22114;DHT22;11223;49.968;9.062;2023-03-14T05:40:27;9.20;99.90
22114;DHT22;11223;49.968;9.062;2023-03-14T05:42:52;9.40;99.90
22114;DHT22;11223;49.968;9.062;2023-03-14T05:45:18;9.50;99.90
22114;DHT22;11223;49.968;9.062;2023-03-14T05:47:44;9.50;99.90
22114;DHT22;11223;49.968;9.062;2023-03-14T05:50:10;9.60;99.90
22114;DHT22;11223;49.968;9.062;2023-03-14T05:52:36;9.50;99.90
22114;DHT22;11223;49.968;9.062;2023-03-14T05:55:02;9.60;99.90
22114;DHT22;11223;49.968;9.062;2023-03-14T05:57:27;9.60;99.90
22114;DHT22;11223;49.968;9.062;2023-03-14T05:59:53;9.70;99.90
22114;DHT22;11223;49.968;9.062;2023-03-14T06:02:18;9.70;99.90
22114;DHT22;11223;49.968;9.062;2023-03-14T06:04:44;9.70;99.90
22114;DHT22;11223;49.968;9.062;2023-03-14T06:07:09;9.70;99.90
22114;DHT22;11223;49.968;9.062;2023-03-14T06:09:35;9.70;99.90
22114;DHT22;11223;49.968;9.062;2023-03-14T06:12:00;9.70;99.90
22114;DHT22;11223;49.968;9.062;2023-03-14T06:14:26;9.70;99.90
22114;DHT22;11223;49.968;9.062;2023-03-14T06:16:52;9.80;99.90
22114;DHT22;11223;49.968;9.062;2023-03-14T06:19:18;9.80;99.90
22114;DHT22;11223;49.968;9.062;2023-03-14T06:21:44;9.90;99.90
22114;DHT22;11223;49.968;9.062;2023-03-14T06:24:09;9.80;99.90
22114;DHT22;11223;49.968;9.062;2023-03-14T06:26:35;9.90;99.90
22114;DHT22;11223;49.968;9.062;2023-03-14T06:29:01;9.80;99.90
22114;DHT22;11223;49.968;9.062;2023-03-14T06:31:32;9.70;99.90
22114;DHT22;11223;49.968;9.062;2023-03-14T06:33:58;9.80;99.90
22114;DHT22;11223;49.968;9.062;2023-03-14T06:36:24;9.70;99.90
22114;DHT22;11223;49.968;9.062;2023-03-14T06:38:50;9.70;99.90
22114;DHT22;11223;49.968;9.062;2023-03-14T06:41:16;9.70;99.90
22114;DHT22;11223;49.968;9.062;2023-03-14T06:43:42;9.70;99.90
22114;DHT22;11223;49.968;9.062;2023-03-14T06:46:07;9.70;99.90
22114;DHT22;11223;49.968;9.062;2023-03-14T06:48:33;9.80;99.90
22114;DHT22;11223;49.968;9.062;2023-03-14T06:50:58;9.80;99.90
22114;DHT22;11223;49.968;9.062;2023-03-14T06:53:24;9.90;99.90
22114;DHT22;11223;49.968;9.062;2023-03-14T06:55:50;9.90;99.90
22114;DHT22;11223;49.968;9.062;2023-03-14T06:58:15;9.80;99.90
22114;DHT22;11223;49.968;9.062;2023-03-14T07:00:41;9.80;99.90
22114;DHT22;11223;49.968;9.062;2023-03-14T07:03:07;9.90;99.90
22114;DHT22;11223;49.968;9.062;2023-03-14T07:05:32;9.90;99.90
22114;DHT22;11223;49.968;9.062;2023-03-14T07:07:58;9.90;99.90
22114;DHT22;11223;49.968;9.062;2023-03-14T07:10:23;9.90;99.90
22114;DHT22;11223;49.968;9.062;2023-03-14T07:12:49;9.80;99.90
22114;DHT22;11223;49.968;9.062;2023-03-14T07:15:16;9.80;99.90
22114;DHT22;11223;49.968;9.062;2023-03-14T07:17:41;9.80;99.90
22114;DHT22;11223;49.968;9.062;2023-03-14T07:20:08;9.80;99.90
22114;DHT22;11223;49.968;9.062;2023-03-14T07:22:34;9.90;99.90
22114;DHT22;11223;49.968;9.062;2023-03-14T07:25:00;9.90;99.90
22114;DHT22;11223;49.968;9.062;2023-03-14T07:27:25;9.90;99.90
22114;DHT22;11223;49.968;9.062;2023-03-14T07:29:51;10.00;99.90
22114;DHT22;11223;49.968;9.062;2023-03-14T07:32:16;10.00;99.90
22114;DHT22;11223;49.968;9.062;2023-03-14T07:34:42;10.10;99.90
22114;DHT22;11223;49.968;9.062;2023-03-14T07:37:08;10.20;99.90
22114;DHT22;11223;49.968;9.062;2023-03-14T07:39:34;10.20;99.90
22114;DHT22;11223;49.968;9.062;2023-03-14T07:42:00;10.30;99.90
22114;DHT22;11223;49.968;9.062;2023-03-14T07:44:26;10.40;99.90
22114;DHT22;11223;49.968;9.062;2023-03-14T07:46:52;10.40;99.90
22114;DHT22;11223;49.968;9.062;2023-03-14T07:49:18;10.50;99.90
22114;DHT22;11223;49.968;9.062;2023-03-14T07:51:47;10.50;99.90
22114;DHT22;11223;49.968;9.062;2023-03-14T07:54:13;10.50;99.90
22114;DHT22;11223;49.968;9.062;2023-03-14T07:56:38;10.60;99.90
22114;DHT22;11223;49.968;9.062;2023-03-14T07:59:04;10.60;99.90
22114;DHT22;11223;49.968;9.062;2023-03-14T08:01:29;10.70;99.90
22114;DHT22;11223;49.968;9.062;2023-03-14T08:03:55;10.80;99.90
22114;DHT22;11223;49.968;9.062;2023-03-14T08:06:21;10.80;99.90
22114;DHT22;11223;49.968;9.062;2023-03-14T08:08:46;10.90;99.90
22114;DHT22;11223;49.968;9.062;2023-03-14T08:11:12;10.90;99.90
22114;DHT22;11223;49.968;9.062;2023-03-14T08:13:38;10.90;99.90
22114;DHT22;11223;49.968;9.062;2023-03-14T08:16:04;11.00;99.90
22114;DHT22;11223;49.968;9.062;2023-03-14T08:18:30;11.00;99.90
22114;DHT22;11223;49.968;9.062;2023-03-14T08:20:56;11.10;99.90
22114;DHT22;11223;49.968;9.062;2023-03-14T08:23:21;11.10;99.90
22114;DHT22;11223;49.968;9.062;2023-03-14T08:25:51;11.00;99.90
22114;DHT22;11223;49.968;9.062;2023-03-14T08:28:18;11.10;99.90
22114;DHT22;11223;49.968;9.062;2023-03-14T08:30:43;11.10;99.90
22114;DHT22;11223;49.968;9.062;2023-03-14T08:33:09;11.00;99.90
22114;DHT22;11223;49.968;9.062;2023-03-14T08:35:35;11.10;99.90
22114;DHT22;11223;49.968;9.062;2023-03-14T08:38:02;11.10;99.90
22114;DHT22;11223;49.968;9.062;2023-03-14T08:40:27;11.10;99.90
22114;DHT22;11223;49.968;9.062;2023-03-14T08:42:53;11.20;99.90
22114;DHT22;11223;49.968;9.062;2023-03-14T08:45:19;11.20;99.90
22114;DHT22;11223;49.968;9.062;2023-03-14T08:47:45;11.30;99.90
22114;DHT22;11223;49.968;9.062;2023-03-14T08:50:11;11.30;99.90
22114;DHT22;11223;49.968;9.062;2023-03-14T08:52:37;11.30;99.90
22114;DHT22;11223;49.968;9.062;2023-03-14T08:55:06;11.30;99.90
22114;DHT22;11223;49.968;9.062;2023-03-14T08:57:32;11.30;99.90
22114;DHT22;11223;49.968;9.062;2023-03-14T08:59:57;11.30;99.90
22114;DHT22;11223;49.968;9.062;2023-03-14T09:02:24;11.30;99.90
22114;DHT22;11223;49.968;9.062;2023-03-14T09:04:51;11.30;99.90
22114;DHT22;11223;49.968;9.062;2023-03-14T09:07:17;11.30;99.90
22114;DHT22;11223;49.968;9.062;2023-03-14T09:09:42;11.30;99.90
22114;DHT22;11223;49.968;9.062;2023-03-14T09:12:08;11.30;99.90
22114;DHT22;11223;49.968;9.062;2023-03-14T09:14:34;11.30;99.90
22114;DHT22;11223;49.968;9.062;2023-03-14T09:16:59;11.30;99.90
22114;DHT22;11223;49.968;9.062;2023-03-14T09:19:25;11.30;99.90
22114;DHT22;11223;49.968;9.062;2023-03-14T09:21:50;11.30;99.90
22114;DHT22;11223;49.968;9.062;2023-03-14T09:24:17;11.40;99.90
22114;DHT22;11223;49.968;9.062;2023-03-14T09:26:43;11.50;99.90
22114;DHT22;11223;49.968;9.062;2023-03-14T09:29:09;11.50;99.90
22114;DHT22;11223;49.968;9.062;2023-03-14T09:31:35;11.50;99.90
22114;DHT22;11223;49.968;9.062;2023-03-14T09:34:00;11.40;99.90
22114;DHT22;11223;49.968;9.062;2023-03-14T09:36:26;11.50;99.90
22114;DHT22;11223;49.968;9.062;2023-03-14T09:38:52;11.50;99.90
22114;DHT22;11223;49.968;9.062;2023-03-14T09:41:23;11.50;99.90
22114;DHT22;11223;49.968;9.062;2023-03-14T09:44:13;11.60;99.90
22114;DHT22;11223;49.968;9.062;2023-03-14T09:46:42;11.70;99.90
22114;DHT22;11223;49.968;9.062;2023-03-14T09:49:12;11.70;99.90
22114;DHT22;11223;49.968;9.062;2023-03-14T09:51:40;11.70;99.90
22114;DHT22;11223;49.968;9.062;2023-03-14T09:54:05;11.70;99.90
22114;DHT22;11223;49.968;9.062;2023-03-14T09:56:40;11.90;99.90
22114;DHT22;11223;49.968;9.062;2023-03-14T09:59:10;12.00;99.90
22114;DHT22;11223;49.968;9.062;2023-03-14T10:01:38;12.10;99.90
22114;DHT22;11223;49.968;9.062;2023-03-14T10:04:09;12.30;99.90
22114;DHT22;11223;49.968;9.062;2023-03-14T10:06:38;12.50;99.90
22114;DHT22;11223;49.968;9.062;2023-03-14T10:09:04;12.60;99.90
22114;DHT22;11223;49.968;9.062;2023-03-14T10:11:30;12.80;99.90
22114;DHT22;11223;49.968;9.062;2023-03-14T10:14:09;12.80;99.90
22114;DHT22;11223;49.968;9.062;2023-03-14T10:16:43;12.80;99.90
22114;DHT22;11223;49.968;9.062;2023-03-14T10:19:15;12.60;99.90
22114;DHT22;11223;49.968;9.062;2023-03-14T10:21:50;12.40;99.90
22114;DHT22;11223;49.968;9.062;2023-03-14T10:24:34;12.20;99.90
22114;DHT22;11223;49.968;9.062;2023-03-14T10:27:08;12.10;99.90
22114;DHT22;11223;49.968;9.062;2023-03-14T10:29:55;12.00;99.90
22114;DHT22;11223;49.968;9.062;2023-03-14T10:32:28;11.90;99.90
22114;DHT22;11223;49.968;9.062;2023-03-14T10:35:22;11.80;99.90
22114;DHT22;11223;49.968;9.062;2023-03-14T10:37:55;11.70;99.90
22114;DHT22;11223;49.968;9.062;2023-03-14T10:40:33;11.50;99.90
22114;DHT22;11223;49.968;9.062;2023-03-14T10:43:00;11.50;99.90
22114;DHT22;11223;49.968;9.062;2023-03-14T10:45:38;11.40;99.90
22114;DHT22;11223;49.968;9.062;2023-03-14T10:48:33;11.40;99.90
22114;DHT22;11223;49.968;9.062;2023-03-14T10:53:49;11.30;99.90
22114;DHT22;11223;49.968;9.062;2023-03-14T10:56:20;11.30;99.90
22114;DHT22;11223;49.968;9.062;2023-03-14T10:58:57;11.20;99.90
22114;DHT22;11223;49.968;9.062;2023-03-14T11:07:01;11.20;99.90
22114;DHT22;11223;49.968;9.062;2023-03-14T11:13:14;11.20;99.90
22114;DHT22;11223;49.968;9.062;2023-03-14T11:15:32;11.20;99.90
22114;DHT22;11223;49.968;9.062;2023-03-14T11:18:28;11.10;99.90
22114;DHT22;11223;49.968;9.062;2023-03-14T11:23:48;11.00;99.90
22114;DHT22;11223;49.968;9.062;2023-03-14T11:26:37;11.00;99.90
22114;DHT22;11223;49.968;9.062;2023-03-14T11:32:00;10.90;99.90
22114;DHT22;11223;49.968;9.062;2023-03-14T11:37:32;10.80;99.90
22114;DHT22;11223;49.968;9.062;2023-03-14T11:40:21;10.80;99.90
22114;DHT22;11223;49.968;9.062;2023-03-14T11:43:20;10.90;99.90
22114;DHT22;11223;49.968;9.062;2023-03-14T11:45:50;10.90;99.90
22114;DHT22;11223;49.968;9.062;2023-03-14T11:48:29;10.90;99.90
22114;DHT22;11223;49.968;9.062;2023-03-14T11:50:59;10.90;99.90
22114;DHT22;11223;49.968;9.062;2023-03-14T11:53:55;10.90;99.90
22114;DHT22;11223;49.968;9.062;2023-03-14T11:59:20;10.90;99.90
22114;DHT22;11223;49.968;9.062;2023-03-14T12:02:06;10.90;99.90
22114;DHT22;11223;49.968;9.062;2023-03-14T12:04:48;11.00;99.90
22114;DHT22;11223;49.968;9.062;2023-03-14T12:07:21;11.10;99.90
22114;DHT22;11223;49.968;9.062;2023-03-14T12:09:50;11.10;99.90
22114;DHT22;11223;49.968;9.062;2023-03-14T12:12:22;11.10;99.90
22114;DHT22;11223;49.968;9.062;2023-03-14T12:15:02;11.20;99.90
22114;DHT22;11223;49.968;9.062;2023-03-14T12:17:39;11.30;99.90
22114;DHT22;11223;49.968;9.062;2023-03-14T12:22:49;11.60;99.90
22114;DHT22;11223;49.968;9.062;2023-03-14T12:25:24;11.90;99.90
22114;DHT22;11223;49.968;9.062;2023-03-14T12:30:29;12.20;99.90
22114;DHT22;11223;49.968;9.062;2023-03-14T12:35:47;12.10;99.90
22114;DHT22;11223;49.968;9.062;2023-03-14T12:41:29;11.70;99.90
22114;DHT22;11223;49.968;9.062;2023-03-14T12:45:22;11.40;99.90
22114;DHT22;11223;49.968;9.062;2023-03-14T12:49:50;10.90;99.90
22114;DHT22;11223;49.968;9.062;2023-03-14T12:55:31;10.30;99.90
22114;DHT22;11223;49.968;9.062;2023-03-14T13:00:35;9.80;99.90
22114;DHT22;11223;49.968;9.062;2023-03-14T13:03:35;9.80;99.90
22114;DHT22;11223;49.968;9.062;2023-03-14T13:06:03;9.60;99.90
22114;DHT22;11223;49.968;9.062;2023-03-14T13:08:43;9.60;99.90
22114;DHT22;11223;49.968;9.062;2023-03-14T13:11:15;9.60;99.90
22114;DHT22;11223;49.968;9.062;2023-03-14T13:13:56;9.50;99.90
22114;DHT22;11223;49.968;9.062;2023-03-14T13:16:22;9.40;99.90
22114;DHT22;11223;49.968;9.062;2023-03-14T13:18:50;9.50;99.90
22114;DHT22;11223;49.968;9.062;2023-03-14T13:21:24;9.80;99.90
22114;DHT22;11223;49.968;9.062;2023-03-14T13:24:17;10.10;99.90
22114;DHT22;11223;49.968;9.062;2023-03-14T13:26:43;10.50;99.90
22114;DHT22;11223;49.968;9.062;2023-03-14T13:31:51;10.70;99.90
22114;DHT22;11223;49.968;9.062;2023-03-14T13:34:18;10.50;99.90
22114;DHT22;11223;49.968;9.062;2023-03-14T13:36:44;10.40;99.90
22114;DHT22;11223;49.968;9.062;2023-03-14T13:39:14;10.20;99.90
22114;DHT22;11223;49.968;9.062;2023-03-14T13:41:42;10.10;99.90
22114;DHT22;11223;49.968;9.062;2023-03-14T13:44:12;10.00;99.90
22114;DHT22;11223;49.968;9.062;2023-03-14T13:46:39;9.90;99.90
22114;DHT22;11223;49.968;9.062;2023-03-14T13:49:09;9.70;99.90
22114;DHT22;11223;49.968;9.062;2023-03-14T13:51:38;9.50;99.90
22114;DHT22;11223;49.968;9.062;2023-03-14T13:54:13;9.40;99.90
22114;DHT22;11223;49.968;9.062;2023-03-14T13:56:40;9.30;99.90
22114;DHT22;11223;49.968;9.062;2023-03-14T13:59:28;9.20;99.90
22114;DHT22;11223;49.968;9.062;2023-03-14T14:01:55;9.10;99.90
22114;DHT22;11223;49.968;9.062;2023-03-14T14:04:23;9.10;99.90
22114;DHT22;11223;49.968;9.062;2023-03-14T14:07:00;9.10;99.90
22114;DHT22;11223;49.968;9.062;2023-03-14T14:09:37;9.00;99.90
22114;DHT22;11223;49.968;9.062;2023-03-14T14:12:06;9.00;99.90
22114;DHT22;11223;49.968;9.062;2023-03-14T14:15:03;9.20;99.90
22114;DHT22;11223;49.968;9.062;2023-03-14T14:17:38;9.30;99.90
22114;DHT22;11223;49.968;9.062;2023-03-14T14:20:20;9.40;99.90
22114;DHT22;11223;49.968;9.062;2023-03-14T14:22:47;9.50;99.90
22114;DHT22;11223;49.968;9.062;2023-03-14T14:25:14;9.50;99.90
22114;DHT22;11223;49.968;9.062;2023-03-14T14:27:43;9.40;99.90
22114;DHT22;11223;49.968;9.062;2023-03-14T14:32:47;9.20;99.90
22114;DHT22;11223;49.968;9.062;2023-03-14T14:35:56;9.20;99.90
22114;DHT22;11223;49.968;9.062;2023-03-14T14:38:22;9.00;99.90
22114;DHT22;11223;49.968;9.062;2023-03-14T14:40:50;9.00;99.90
22114;DHT22;11223;49.968;9.062;2023-03-14T14:43:24;8.90;99.90
22114;DHT22;11223;49.968;9.062;2023-03-14T14:45:53;8.90;99.90
22114;DHT22;11223;49.968;9.062;2023-03-14T14:48:23;8.80;99.90
22114;DHT22;11223;49.968;9.062;2023-03-14T14:50:55;8.80;99.90
22114;DHT22;11223;49.968;9.062;2023-03-14T14:53:39;8.70;99.90
22114;DHT22;11223;49.968;9.062;2023-03-14T14:56:16;8.60;99.90
22114;DHT22;11223;49.968;9.062;2023-03-14T14:58:45;8.40;99.90
22114;DHT22;11223;49.968;9.062;2023-03-14T15:01:16;8.30;99.90
22114;DHT22;11223;49.968;9.062;2023-03-14T15:03:44;8.20;99.90
22114;DHT22;11223;49.968;9.062;2023-03-14T15:06:12;8.00;99.90
22114;DHT22;11223;49.968;9.062;2023-03-14T15:08:38;7.90;99.90
22114;DHT22;11223;49.968;9.062;2023-03-14T15:11:04;7.80;99.90
22114;DHT22;11223;49.968;9.062;2023-03-14T15:13:30;7.80;99.90
22114;DHT22;11223;49.968;9.062;2023-03-14T15:15:56;7.70;99.90
22114;DHT22;11223;49.968;9.062;2023-03-14T15:18:24;7.60;99.90
22114;DHT22;11223;49.968;9.062;2023-03-14T15:20:50;7.50;99.90
22114;DHT22;11223;49.968;9.062;2023-03-14T15:23:18;7.50;99.90
22114;DHT22;11223;49.968;9.062;2023-03-14T15:25:44;7.50;99.90
22114;DHT22;11223;49.968;9.062;2023-03-14T15:28:17;7.40;99.90
22114;DHT22;11223;49.968;9.062;2023-03-14T15:30:45;7.30;99.90
22114;DHT22;11223;49.968;9.062;2023-03-14T15:33:11;7.30;99.90
22114;DHT22;11223;49.968;9.062;2023-03-14T15:35:37;7.20;99.90
22114;DHT22;11223;49.968;9.062;2023-03-14T15:38:03;7.20;99.90
22114;DHT22;11223;49.968;9.062;2023-03-14T15:40:29;7.10;99.90
22114;DHT22;11223;49.968;9.062;2023-03-14T15:42:54;7.20;99.90
22114;DHT22;11223;49.968;9.062;2023-03-14T15:45:20;7.10;99.90
22114;DHT22;11223;49.968;9.062;2023-03-14T15:47:45;7.00;99.90
22114;DHT22;11223;49.968;9.062;2023-03-14T15:50:11;7.00;99.90
22114;DHT22;11223;49.968;9.062;2023-03-14T15:52:37;6.90;99.90
22114;DHT22;11223;49.968;9.062;2023-03-14T15:55:02;6.90;99.90
22114;DHT22;11223;49.968;9.062;2023-03-14T15:57:28;6.80;99.90
22114;DHT22;11223;49.968;9.062;2023-03-14T15:59:54;6.80;99.90
22114;DHT22;11223;49.968;9.062;2023-03-14T16:02:19;6.80;99.90
22114;DHT22;11223;49.968;9.062;2023-03-14T16:04:45;6.80;99.90
22114;DHT22;11223;49.968;9.062;2023-03-14T16:07:11;6.80;99.90
22114;DHT22;11223;49.968;9.062;2023-03-14T16:09:36;6.70;99.90
22114;DHT22;11223;49.968;9.062;2023-03-14T16:12:02;6.60;99.90
22114;DHT22;11223;49.968;9.062;2023-03-14T16:14:30;6.60;99.90
22114;DHT22;11223;49.968;9.062;2023-03-14T16:16:55;6.60;99.90
22114;DHT22;11223;49.968;9.062;2023-03-14T16:19:25;6.60;99.90
22114;DHT22;11223;49.968;9.062;2023-03-14T16:21:52;6.70;99.90
22114;DHT22;11223;49.968;9.062;2023-03-14T16:24:18;6.70;99.90
22114;DHT22;11223;49.968;9.062;2023-03-14T16:26:43;6.60;99.90
22114;DHT22;11223;49.968;9.062;2023-03-14T16:29:10;6.70;99.90
22114;DHT22;11223;49.968;9.062;2023-03-14T16:31:35;6.70;99.90
22114;DHT22;11223;49.968;9.062;2023-03-14T16:34:08;6.60;99.90
22114;DHT22;11223;49.968;9.062;2023-03-14T16:36:34;6.60;99.90
22114;DHT22;11223;49.968;9.062;2023-03-14T16:38:59;6.60;99.90
22114;DHT22;11223;49.968;9.062;2023-03-14T16:41:25;6.50;99.90
22114;DHT22;11223;49.968;9.062;2023-03-14T16:43:58;6.50;99.90
22114;DHT22;11223;49.968;9.062;2023-03-14T16:46:24;6.50;99.90